createdAt,value
2023-08-06T00:00:39.429Z,4.83
2023-08-06T00:01:44.909Z,4.50
2023-08-06T00:02:47.958Z,3.00
2023-08-06T00:03:51.040Z,2.57
2023-08-06T00:04:54.090Z,2.33
2023-08-06T00:05:59.724Z,3.43
2023-08-06T00:07:05.243Z,3.50
2023-08-06T00:08:10.855Z,3.00
2023-08-06T00:09:14.266Z,4.00
2023-08-06T00:10:19.576Z,5.00
2023-08-06T00:11:22.469Z,2.50
2023-08-06T00:12:25.468Z,2.67
2023-08-06T00:13:30.895Z,3.43
2023-08-06T00:14:36.321Z,3.25
2023-08-06T00:15:39.417Z,3.62
2023-08-06T00:16:45.117Z,3.57
2023-08-06T00:17:48.076Z,3.50
2023-08-06T00:18:51.007Z,2.67
2023-08-06T00:19:56.556Z,2.00
2023-08-06T00:21:02.176Z,1.75
2023-08-06T00:22:04.887Z,2.25
2023-08-06T00:23:10.147Z,3.00
2023-08-06T00:24:12.881Z,3.75
2023-08-06T00:25:15.530Z,5.00
2023-08-06T00:26:20.923Z,4.33
2023-08-06T00:27:26.561Z,3.00
2023-08-06T00:28:32.265Z,4.00
2023-08-06T00:29:35.326Z,3.50
2023-08-06T00:30:38.311Z,3.86
2023-08-06T00:31:41.328Z,4.00
2023-08-06T00:32:46.583Z,4.00
2023-08-06T00:33:51.754Z,3.50
2023-08-06T00:34:54.650Z,3.50
2023-08-06T00:35:57.545Z,3.50
2023-08-06T00:37:02.914Z,3.00
2023-08-06T00:38:08.600Z,2.00
2023-08-06T00:39:11.920Z,1.50
2023-08-06T00:40:14.794Z,2.57
2023-08-06T00:41:17.729Z,3.00
2023-08-06T00:42:23.218Z,3.00
2023-08-06T00:43:28.693Z,3.50
2023-08-06T00:44:34.405Z,3.00
2023-08-06T00:45:37.322Z,2.00
2023-08-06T00:46:42.885Z,4.00
2023-08-06T00:47:45.854Z,3.50
2023-08-06T00:48:48.841Z,3.57
2023-08-06T00:49:57.668Z,3.00
2023-08-06T00:51:00.621Z,2.62
2023-08-06T00:52:03.706Z,2.33
2023-08-06T00:53:09.173Z,4.67
2023-08-06T00:54:12.068Z,3.50
2023-08-06T00:55:14.762Z,3.00
2023-08-06T00:56:20.211Z,3.83
2023-08-06T00:57:26.064Z,2.75
2023-08-06T00:58:28.764Z,2.50
2023-08-06T00:59:34.489Z,2.00
2023-08-06T01:00:37.718Z,2.87
2023-08-06T01:01:40.547Z,3.67
2023-08-06T01:02:43.321Z,3.57
2023-08-06T01:03:48.858Z,2.00
2023-08-06T01:04:54.251Z,2.00
2023-08-06T01:05:57.219Z,3.50
2023-08-06T01:06:59.903Z,3.14
2023-08-06T01:08:05.469Z,2.33
2023-08-06T01:09:08.491Z,2.50
2023-08-06T01:10:16.974Z,2.67
2023-08-06T01:11:20.163Z,3.75
2023-08-06T01:12:23.126Z,3.00
2023-08-06T01:13:26.096Z,3.00
2023-08-06T01:14:31.517Z,3.67
2023-08-06T01:15:34.493Z,2.50
2023-08-06T01:16:37.292Z,2.43
2023-08-06T01:17:40.520Z,3.00
2023-08-06T01:18:46.301Z,2.86
2023-08-06T01:19:49.364Z,2.75
2023-08-06T01:20:57.838Z,2.00
2023-08-06T01:22:00.768Z,2.50
2023-08-06T01:23:03.698Z,2.67
2023-08-06T01:24:06.724Z,2.43
2023-08-06T01:25:12.092Z,2.83
2023-08-06T01:26:17.997Z,2.50
2023-08-06T01:27:20.928Z,2.00
2023-08-06T01:28:26.629Z,2.86
2023-08-06T01:29:29.532Z,2.62
2023-08-06T01:30:32.459Z,1.00
2023-08-06T01:31:38.447Z,3.14
2023-08-06T01:32:41.415Z,3.00
2023-08-06T01:33:47.152Z,2.67
2023-08-06T01:34:50.177Z,2.00
2023-08-06T01:35:53.306Z,2.14
2023-08-06T01:36:59.040Z,3.00
2023-08-06T01:38:01.748Z,2.00
2023-08-06T01:39:07.442Z,1.33
2023-08-06T01:40:12.894Z,2.00
2023-08-06T01:41:18.366Z,2.50
2023-08-06T01:42:21.018Z,3.12
2023-08-06T01:43:23.642Z,3.00
2023-08-06T01:44:29.355Z,1.67
2023-08-06T01:45:35.175Z,1.75
2023-08-06T01:46:38.068Z,2.00
2023-08-06T01:47:42.258Z,2.14
2023-08-06T01:48:45.118Z,1.50
2023-08-06T01:49:48.150Z,2.00
2023-08-06T01:50:53.667Z,2.00
2023-08-06T01:51:56.888Z,1.50
2023-08-06T01:52:59.877Z,1.71
2023-08-06T01:54:05.557Z,2.67
2023-08-06T01:55:08.428Z,2.50
2023-08-06T01:56:14.017Z,1.67
2023-08-06T01:57:17.014Z,1.87
2023-08-06T01:58:19.907Z,2.57
2023-08-06T01:59:25.566Z,1.33
2023-08-06T02:00:30.995Z,3.00
2023-08-06T02:01:36.561Z,2.62
2023-08-06T02:02:39.530Z,2.00
2023-08-06T02:03:42.560Z,2.00
2023-08-06T02:04:45.535Z,3.14
2023-08-06T02:05:52.581Z,3.00
2023-08-06T02:06:55.170Z,3.00
2023-08-06T02:08:00.690Z,2.33
2023-08-06T02:09:03.700Z,2.00
2023-08-06T02:10:06.659Z,2.67
2023-08-06T02:11:12.066Z,3.57
2023-08-06T02:12:17.504Z,2.50
2023-08-06T02:13:22.869Z,2.00
2023-08-06T02:14:25.895Z,1.12
2023-08-06T02:15:28.511Z,2.29
2023-08-06T02:16:31.096Z,3.33
2023-08-06T02:17:36.885Z,1.67
2023-08-06T02:18:42.334Z,1.50
2023-08-06T02:19:47.740Z,2.50
2023-08-06T02:20:53.169Z,2.12
2023-08-06T02:21:56.093Z,2.62
2023-08-06T02:22:58.978Z,2.50
2023-08-06T02:24:01.974Z,2.00
2023-08-06T02:25:07.934Z,2.43
2023-08-06T02:26:13.422Z,2.75
2023-08-06T02:27:18.890Z,2.50
2023-08-06T02:28:21.777Z,3.50
2023-08-06T02:29:24.690Z,2.67
2023-08-06T02:30:27.641Z,2.57
2023-08-06T02:31:33.112Z,3.17
2023-08-06T02:32:38.617Z,2.00
2023-08-06T02:33:41.622Z,2.50
2023-08-06T02:34:44.346Z,2.67
2023-08-06T02:35:50.120Z,1.57
2023-08-06T02:36:53.062Z,1.50
2023-08-06T02:37:58.600Z,1.67
2023-08-06T02:39:01.599Z,2.25
2023-08-06T02:40:13.205Z,2.33
2023-08-06T02:41:19.020Z,1.00
2023-08-06T02:42:24.470Z,1.50
2023-08-06T02:43:27.370Z,1.87
2023-08-06T02:44:30.257Z,2.00
2023-08-06T02:45:33.227Z,2.71
2023-08-06T02:46:38.678Z,4.00
2023-08-06T02:47:44.123Z,2.75
2023-08-06T02:48:49.922Z,3.00
2023-08-06T02:49:52.629Z,3.00
2023-08-06T02:50:55.300Z,2.00
2023-08-06T02:52:03.854Z,1.33
2023-08-06T02:53:09.299Z,2.62
2023-08-06T02:54:14.731Z,2.50
2023-08-06T02:55:20.569Z,2.50
2023-08-06T02:56:23.432Z,2.50
2023-08-06T02:57:26.376Z,1.43
2023-08-06T02:58:32.032Z,2.50
2023-08-06T02:59:34.965Z,3.00
2023-08-06T03:00:40.683Z,2.71
2023-08-06T03:01:43.658Z,2.00
2023-08-06T03:02:46.611Z,2.33
2023-08-06T03:03:52.117Z,1.33
2023-08-06T03:04:57.708Z,2.50
2023-08-06T03:06:00.687Z,2.12
2023-08-06T03:07:03.615Z,3.00
2023-08-06T03:08:12.273Z,2.67
2023-08-06T03:09:15.133Z,1.50
2023-08-06T03:10:18.088Z,2.67
2023-08-06T03:11:20.947Z,4.00
2023-08-06T03:12:26.363Z,3.50
2023-08-06T03:13:32.016Z,3.75
2023-08-06T03:14:34.916Z,4.75
2023-08-06T03:15:37.871Z,4.33
2023-08-06T03:16:43.651Z,2.14
2023-08-06T03:17:46.593Z,3.00
2023-08-06T03:18:52.098Z,2.00
2023-08-06T03:19:54.996Z,2.12
2023-08-06T03:20:57.895Z,2.86
2023-08-06T03:22:03.332Z,4.67
2023-08-06T03:23:08.783Z,4.12
2023-08-06T03:24:14.518Z,3.12
2023-08-06T03:25:20.215Z,2.50
2023-08-06T03:26:22.900Z,2.25
2023-08-06T03:27:25.543Z,2.67
2023-08-06T03:28:28.371Z,2.00
2023-08-06T03:29:34.088Z,2.00
2023-08-06T03:30:39.577Z,2.12
2023-08-06T03:31:42.251Z,2.62
2023-08-06T03:32:44.984Z,3.33
2023-08-06T03:33:50.740Z,3.67
2023-08-06T03:34:53.626Z,2.50
2023-08-06T03:35:56.528Z,2.33
2023-08-06T03:37:05.350Z,3.00
2023-08-06T03:38:08.190Z,1.12
2023-08-06T03:39:11.124Z,2.29
2023-08-06T03:40:14.010Z,3.67
2023-08-06T03:41:19.828Z,3.00
2023-08-06T03:42:25.263Z,3.50
2023-08-06T03:43:28.174Z,4.00
2023-08-06T03:44:38.712Z,4.00
2023-08-06T03:45:42.105Z,0.50
2023-08-06T03:46:45.647Z,1.75
2023-08-06T03:47:49.006Z,2.00
2023-08-06T03:48:52.379Z,3.00
2023-08-06T03:49:55.766Z,3.00
2023-08-06T03:50:58.945Z,2.57
2023-08-06T03:52:02.239Z,2.57
2023-08-06T03:53:05.522Z,1.71
2023-08-06T03:54:08.795Z,1.43
2023-08-06T03:55:12.179Z,2.71
2023-08-06T03:56:16.381Z,2.00
2023-08-06T03:57:19.975Z,2.00
2023-08-06T03:58:23.667Z,2.00
2023-08-06T03:59:26.846Z,2.43
2023-08-06T04:00:30.070Z,2.14
2023-08-06T04:01:33.225Z,1.57
2023-08-06T04:02:36.421Z,2.29
2023-08-06T04:03:39.666Z,2.29
2023-08-06T04:04:42.966Z,2.57
2023-08-06T04:05:46.046Z,2.57
2023-08-06T04:06:49.423Z,1.83
2023-08-06T04:07:52.816Z,1.86
2023-08-06T04:08:56.212Z,1.57
2023-08-06T04:09:59.388Z,1.86
2023-08-06T04:11:02.665Z,3.33
2023-08-06T04:12:05.852Z,2.29
2023-08-06T04:13:09.144Z,1.17
2023-08-06T04:14:12.121Z,1.67
2023-08-06T04:15:15.317Z,1.33
2023-08-06T04:16:18.524Z,1.57
2023-08-06T04:17:21.674Z,2.57
2023-08-06T04:18:26.387Z,2.29
2023-08-06T04:19:29.146Z,2.00
2023-08-06T04:20:32.254Z,2.14
2023-08-06T04:21:35.427Z,2.57
2023-08-06T04:22:38.599Z,3.33
2023-08-06T04:23:41.978Z,2.00
2023-08-06T04:24:44.941Z,2.00
2023-08-06T04:25:48.041Z,2.00
2023-08-06T04:26:51.100Z,1.57
2023-08-06T04:27:54.297Z,1.67
2023-08-06T04:28:57.498Z,3.00
2023-08-06T04:30:00.463Z,2.71
2023-08-06T04:31:03.557Z,3.57
2023-08-06T04:32:07.504Z,3.00
2023-08-06T04:33:10.829Z,2.57
2023-08-06T04:34:14.312Z,2.33
2023-08-06T04:35:17.511Z,2.14
2023-08-06T04:36:20.878Z,1.43
2023-08-06T04:37:24.073Z,2.00
2023-08-06T04:38:27.349Z,3.00
2023-08-06T04:39:30.626Z,2.67
2023-08-06T04:40:34.026Z,2.00
2023-08-06T04:41:37.516Z,2.00
2023-08-06T04:42:40.494Z,2.43
2023-08-06T04:43:43.677Z,3.00
2023-08-06T04:44:46.650Z,2.67
2023-08-06T04:45:50.014Z,3.29
2023-08-06T04:46:53.214Z,5.14
2023-08-06T04:47:56.125Z,3.00
2023-08-06T04:48:59.063Z,2.33
2023-08-06T04:50:02.156Z,3.00
2023-08-06T04:51:05.341Z,2.57
2023-08-06T04:52:08.514Z,1.86
2023-08-06T04:53:11.683Z,1.83
2023-08-06T04:54:14.944Z,2.00
2023-08-06T04:55:20.836Z,1.33
2023-08-06T04:56:23.960Z,1.50
2023-08-06T04:57:26.926Z,1.00
2023-08-06T04:58:30.231Z,1.43
2023-08-06T04:59:33.517Z,2.57
2023-08-06T05:00:36.924Z,1.71
2023-08-06T05:01:40.266Z,2.14
2023-08-06T05:02:43.748Z,3.00
2023-08-06T05:03:46.954Z,3.14
2023-08-06T05:04:50.354Z,2.14
2023-08-06T05:05:53.776Z,1.86
2023-08-06T05:06:57.125Z,2.57
2023-08-06T05:08:00.427Z,1.57
2023-08-06T05:09:04.021Z,1.00
2023-08-06T05:10:07.417Z,2.00
2023-08-06T05:11:10.707Z,2.14
2023-08-06T05:12:13.973Z,2.00
2023-08-06T05:13:17.283Z,2.00
2023-08-06T05:14:20.721Z,3.71
2023-08-06T05:15:24.045Z,4.71
2023-08-06T05:16:27.254Z,3.00
2023-08-06T05:17:30.576Z,2.14
2023-08-06T05:18:33.897Z,1.86
2023-08-06T05:19:37.431Z,2.43
2023-08-06T05:20:40.676Z,2.12
2023-08-06T05:21:43.861Z,2.67
2023-08-06T05:22:47.094Z,2.00
2023-08-06T05:23:50.748Z,2.00
2023-08-06T05:24:54.031Z,1.75
2023-08-06T05:25:57.521Z,1.71
2023-08-06T05:27:00.787Z,2.43
2023-08-06T05:28:04.280Z,2.00
2023-08-06T05:29:07.580Z,1.86
2023-08-06T05:30:11.416Z,2.43
2023-08-06T05:31:14.791Z,2.87
2023-08-06T05:32:18.326Z,2.00
2023-08-06T05:33:21.714Z,1.00
2023-08-06T05:34:24.980Z,1.57
2023-08-06T05:35:28.383Z,2.71
2023-08-06T05:36:31.792Z,3.00
2023-08-06T05:37:35.169Z,2.29
2023-08-06T05:38:41.415Z,1.57
2023-08-06T05:39:44.802Z,2.00
2023-08-06T05:40:48.397Z,2.43
2023-08-06T05:41:51.743Z,2.14
2023-08-06T05:42:55.174Z,0.75
2023-08-06T05:43:58.500Z,1.43
2023-08-06T05:45:01.546Z,2.00
2023-08-06T05:46:04.874Z,2.00
2023-08-06T05:47:07.875Z,2.57
2023-08-06T05:48:10.996Z,2.00
2023-08-06T05:49:14.270Z,1.57
2023-08-06T05:50:17.343Z,1.00
2023-08-06T05:51:21.441Z,2.29
2023-08-06T05:52:24.719Z,3.00
2023-08-06T05:53:27.876Z,1.33
2023-08-06T05:54:30.847Z,1.67
2023-08-06T05:55:33.878Z,0.57
2023-08-06T05:56:37.036Z,1.86
2023-08-06T05:57:40.344Z,1.67
2023-08-06T05:58:43.504Z,1.33
2023-08-06T05:59:46.702Z,2.43
2023-08-06T06:00:49.800Z,2.14
2023-08-06T06:01:53.381Z,1.00
2023-08-06T06:02:56.816Z,1.43
2023-08-06T06:03:59.821Z,2.00
2023-08-06T06:05:02.914Z,1.57
2023-08-06T06:06:06.002Z,1.43
2023-08-06T06:07:09.130Z,2.00
2023-08-06T06:08:12.262Z,1.00
2023-08-06T06:09:15.446Z,1.43
2023-08-06T06:10:18.714Z,1.57
2023-08-06T06:11:21.795Z,0.57
2023-08-06T06:12:24.977Z,1.33
2023-08-06T06:13:28.166Z,1.67
2023-08-06T06:14:31.350Z,1.86
2023-08-06T06:15:34.413Z,0.57
2023-08-06T06:16:37.494Z,0.43
2023-08-06T06:17:40.972Z,1.00
2023-08-06T06:18:44.261Z,1.43
2023-08-06T06:19:47.661Z,2.00
2023-08-06T06:20:51.047Z,2.00
2023-08-06T06:21:54.838Z,2.14
2023-08-06T06:22:58.301Z,2.00
2023-08-06T06:24:01.611Z,3.29
2023-08-06T06:25:04.890Z,3.00
2023-08-06T06:26:08.287Z,2.29
2023-08-06T06:27:11.668Z,2.14
2023-08-06T06:28:15.113Z,1.43
2023-08-06T06:29:18.445Z,2.14
2023-08-06T06:30:21.725Z,1.57
2023-08-06T06:31:25.172Z,1.00
2023-08-06T06:32:28.514Z,1.43
2023-08-06T06:33:31.894Z,2.00
2023-08-06T06:34:35.282Z,1.57
2023-08-06T06:35:39.587Z,2.29
2023-08-06T06:36:43.296Z,3.00
2023-08-06T06:37:46.760Z,2.00
2023-08-06T06:38:50.297Z,1.57
2023-08-06T06:39:53.746Z,1.43
2023-08-06T06:40:57.072Z,2.00
2023-08-06T06:42:00.319Z,2.00
2023-08-06T06:43:03.664Z,1.57
2023-08-06T06:44:07.220Z,1.00
2023-08-06T06:45:10.580Z,1.43
2023-08-06T06:46:13.908Z,2.14
2023-08-06T06:47:17.046Z,2.43
2023-08-06T06:48:20.024Z,1.57
2023-08-06T06:49:23.410Z,1.17
2023-08-06T06:50:26.694Z,1.33
2023-08-06T06:51:30.037Z,1.67
2023-08-06T06:52:33.257Z,1.67
2023-08-06T06:53:36.342Z,2.33
2023-08-06T06:54:39.622Z,1.00
2023-08-06T06:55:42.746Z,1.43
2023-08-06T06:56:46.002Z,1.57
2023-08-06T06:57:49.384Z,1.43
2023-08-06T06:58:52.760Z,1.57
2023-08-06T06:59:55.951Z,1.00
2023-08-06T07:00:59.749Z,0.57
2023-08-06T07:02:03.176Z,1.00
2023-08-06T07:03:06.466Z,1.33
2023-08-06T07:04:10.092Z,2.17
2023-08-06T07:05:13.698Z,2.57
2023-08-06T07:06:17.170Z,2.00
2023-08-06T07:07:20.321Z,2.00
2023-08-06T07:08:23.657Z,2.00
2023-08-06T07:09:27.225Z,2.00
2023-08-06T07:10:30.571Z,1.29
2023-08-06T07:11:33.786Z,1.33
2023-08-06T07:12:37.246Z,1.67
2023-08-06T07:13:40.872Z,1.43
2023-08-06T07:14:44.569Z,2.00
2023-08-06T07:15:48.483Z,2.00
2023-08-06T07:16:51.912Z,2.62
2023-08-06T07:17:55.289Z,3.00
2023-08-06T07:18:58.820Z,2.57
2023-08-06T07:20:02.016Z,1.50
2023-08-06T07:21:05.011Z,1.00
2023-08-06T07:22:08.474Z,1.33
2023-08-06T07:23:11.670Z,1.57
2023-08-06T07:24:14.755Z,1.00
2023-08-06T07:25:17.946Z,1.86
2023-08-06T07:26:21.135Z,2.14
2023-08-06T07:27:24.320Z,2.00
2023-08-06T07:28:27.518Z,1.00
2023-08-06T07:29:30.467Z,1.00
2023-08-06T07:30:33.661Z,1.86
2023-08-06T07:31:36.991Z,2.14
2023-08-06T07:32:40.304Z,1.57
2023-08-06T07:33:43.520Z,1.00
2023-08-06T07:34:46.684Z,1.00
2023-08-06T07:35:49.970Z,1.33
2023-08-06T07:36:53.144Z,1.57
2023-08-06T07:37:56.339Z,1.50
2023-08-06T07:38:59.468Z,1.00
2023-08-06T07:40:02.705Z,1.00
2023-08-06T07:41:06.000Z,1.14
2023-08-06T07:42:09.024Z,1.57
2023-08-06T07:43:12.097Z,1.50
2023-08-06T07:44:15.252Z,2.00
2023-08-06T07:45:18.397Z,2.43
2023-08-06T07:46:21.921Z,3.00
2023-08-06T07:47:25.141Z,3.43
2023-08-06T07:48:28.108Z,3.14
2023-08-06T07:49:31.017Z,2.00
2023-08-06T07:50:34.222Z,2.00
2023-08-06T07:51:37.600Z,2.00
2023-08-06T07:52:42.821Z,1.71
2023-08-06T07:53:46.265Z,2.50
2023-08-06T07:54:49.509Z,2.71
2023-08-06T07:55:52.921Z,1.57
2023-08-06T07:56:56.064Z,1.00
2023-08-06T07:57:59.677Z,2.86
2023-08-06T07:59:03.047Z,3.57
2023-08-06T08:00:06.199Z,2.57
2023-08-06T08:01:09.626Z,2.86
2023-08-06T08:02:12.996Z,3.43
2023-08-06T08:03:16.342Z,2.43
2023-08-06T08:04:21.451Z,2.00
2023-08-06T08:05:24.178Z,2.00
2023-08-06T08:06:27.546Z,2.43
2023-08-06T08:07:30.849Z,3.14
2023-08-06T08:08:34.336Z,2.43
2023-08-06T08:09:37.765Z,3.14
2023-08-06T08:10:41.077Z,3.57
2023-08-06T08:11:44.854Z,2.57
2023-08-06T08:12:48.278Z,3.00
2023-08-06T08:13:51.297Z,3.57
2023-08-06T08:14:54.676Z,2.67
2023-08-06T08:15:58.073Z,2.29
2023-08-06T08:17:01.187Z,2.33
2023-08-06T08:18:04.525Z,3.43
2023-08-06T08:19:07.564Z,2.86
2023-08-06T08:20:10.879Z,2.43
2023-08-06T08:21:14.281Z,3.86
2023-08-06T08:22:17.648Z,5.29
2023-08-06T08:23:20.941Z,4.14
2023-08-06T08:24:24.422Z,4.29
2023-08-06T08:25:29.045Z,5.14
2023-08-06T08:26:32.332Z,3.50
2023-08-06T08:27:35.716Z,3.00
2023-08-06T08:28:39.113Z,3.00
2023-08-06T08:29:42.812Z,3.43
2023-08-06T08:30:46.069Z,4.00
2023-08-06T08:31:49.173Z,3.14
2023-08-06T08:32:52.625Z,2.29
2023-08-06T08:33:56.866Z,3.71
2023-08-06T08:35:00.749Z,5.00
2023-08-06T08:36:04.254Z,4.37
2023-08-06T08:37:07.544Z,4.57
2023-08-06T08:38:10.922Z,5.14
2023-08-06T08:39:14.294Z,3.57
2023-08-06T08:40:17.870Z,3.00
2023-08-06T08:41:21.277Z,3.57
2023-08-06T08:42:24.637Z,4.14
2023-08-06T08:43:27.943Z,4.29
2023-08-06T08:44:31.233Z,3.71
2023-08-06T08:45:34.746Z,4.00
2023-08-06T08:46:38.119Z,3.86
2023-08-06T08:47:41.423Z,3.86
2023-08-06T08:48:44.878Z,3.83
2023-08-06T08:49:48.371Z,3.00
2023-08-06T08:50:51.985Z,2.71
2023-08-06T08:51:55.664Z,3.43
2023-08-06T08:52:59.247Z,4.00
2023-08-06T08:54:02.652Z,3.57
2023-08-06T08:55:05.775Z,3.00
2023-08-06T08:56:09.095Z,3.43
2023-08-06T08:57:12.285Z,4.00
2023-08-06T08:58:15.257Z,3.67
2023-08-06T08:59:18.338Z,3.71
2023-08-06T09:00:21.522Z,4.71
2023-08-06T09:01:24.793Z,3.43
2023-08-06T09:02:27.768Z,4.00
2023-08-06T09:03:30.877Z,4.00
2023-08-06T09:04:35.148Z,3.57
2023-08-06T09:05:38.481Z,3.62
2023-08-06T09:06:41.837Z,3.71
2023-08-06T09:07:45.037Z,2.86
2023-08-06T09:08:48.608Z,4.86
2023-08-06T09:09:52.112Z,5.57
2023-08-06T09:10:55.497Z,4.57
2023-08-06T09:11:59.084Z,3.67
2023-08-06T09:13:02.371Z,3.00
2023-08-06T09:14:05.547Z,4.43
2023-08-06T09:15:08.629Z,4.57
2023-08-06T09:16:11.773Z,4.67
2023-08-06T09:17:15.034Z,6.00
2023-08-06T09:18:18.270Z,4.57
2023-08-06T09:19:21.558Z,4.00
2023-08-06T09:20:24.803Z,4.00
2023-08-06T09:21:28.083Z,3.00
2023-08-06T09:22:31.470Z,4.00
2023-08-06T09:23:34.634Z,3.00
2023-08-06T09:24:38.158Z,2.57
2023-08-06T09:25:42.197Z,2.86
2023-08-06T09:26:45.549Z,3.37
2023-08-06T09:27:49.241Z,3.00
2023-08-06T09:28:52.731Z,3.14
2023-08-06T09:29:56.201Z,3.57
2023-08-06T09:30:59.593Z,3.00
2023-08-06T09:32:03.152Z,3.33
2023-08-06T09:33:06.985Z,3.29
2023-08-06T09:34:10.484Z,3.00
2023-08-06T09:35:14.073Z,3.00
2023-08-06T09:36:17.665Z,3.00
2023-08-06T09:37:21.056Z,2.14
2023-08-06T09:38:24.436Z,3.87
2023-08-06T09:39:27.664Z,4.33
2023-08-06T09:40:30.803Z,2.43
2023-08-06T09:41:34.085Z,3.00
2023-08-06T09:42:37.153Z,3.43
2023-08-06T09:43:40.626Z,4.00
2023-08-06T09:44:43.808Z,3.57
2023-08-06T09:45:46.899Z,2.14
2023-08-06T09:46:50.329Z,1.67
2023-08-06T09:47:53.654Z,3.14
2023-08-06T09:48:56.830Z,3.71
2023-08-06T09:50:00.030Z,4.00
2023-08-06T09:51:03.196Z,4.00
2023-08-06T09:52:06.560Z,3.71
2023-08-06T09:53:10.033Z,3.14
2023-08-06T09:54:25.260Z,2.62
2023-08-06T09:55:18.011Z,3.00
2023-08-06T09:56:21.388Z,3.00
2023-08-06T09:57:24.475Z,4.00
2023-08-06T09:58:27.747Z,3.57
2023-08-06T09:59:30.933Z,3.29
2023-08-06T10:00:35.238Z,3.33
2023-08-06T10:01:38.728Z,3.00
2023-08-06T10:02:42.310Z,2.43
2023-08-06T10:03:45.914Z,3.00
2023-08-06T10:04:55.009Z,2.14
2023-08-06T10:05:53.996Z,1.50
2023-08-06T10:06:57.320Z,2.29
2023-08-06T10:08:00.492Z,1.86
2023-08-06T10:09:03.816Z,1.43
2023-08-06T10:10:07.184Z,1.00
2023-08-06T10:11:10.322Z,1.43
2023-08-06T10:12:13.731Z,2.00
2023-08-06T10:13:17.221Z,2.00
2023-08-06T10:14:20.714Z,2.00
2023-08-06T10:15:24.195Z,2.00
2023-08-06T10:16:27.450Z,2.43
2023-08-06T10:17:41.118Z,2.33
2023-08-06T10:18:35.077Z,1.12
2023-08-06T10:19:38.844Z,1.43
2023-08-06T10:20:42.462Z,1.57
2023-08-06T10:21:46.097Z,2.00
2023-08-06T10:22:49.430Z,1.86
2023-08-06T10:23:52.746Z,2.14
2023-08-06T10:24:55.910Z,1.57
2023-08-06T10:25:59.049Z,1.43
2023-08-06T10:27:02.240Z,2.00
2023-08-06T10:28:05.456Z,2.43
2023-08-06T10:29:08.738Z,2.43
2023-08-06T10:30:11.917Z,1.43
2023-08-06T10:31:15.410Z,1.43
2023-08-06T10:32:18.694Z,1.86
2023-08-06T10:33:21.875Z,2.71
2023-08-06T10:34:25.055Z,2.57
2023-08-06T10:35:28.208Z,1.14
2023-08-06T10:36:31.663Z,2.00
2023-08-06T10:37:34.840Z,3.14
2023-08-06T10:38:37.991Z,2.00
2023-08-06T10:39:41.642Z,1.71
2023-08-06T10:40:44.863Z,1.50
2023-08-06T10:41:48.629Z,2.33
2023-08-06T10:42:52.252Z,2.57
2023-08-06T10:43:55.635Z,2.43
2023-08-06T10:44:59.033Z,2.00
2023-08-06T10:46:02.338Z,1.67
2023-08-06T10:47:05.770Z,1.00
2023-08-06T10:48:09.131Z,2.50
2023-08-06T10:49:12.675Z,3.43
2023-08-06T10:50:16.378Z,2.86
2023-08-06T10:51:19.752Z,3.00
2023-08-06T10:52:23.244Z,2.57
2023-08-06T10:53:26.526Z,2.00
2023-08-06T10:54:29.814Z,2.00
2023-08-06T10:55:33.200Z,2.00
2023-08-06T10:56:36.481Z,2.67
2023-08-06T10:57:40.327Z,3.67
2023-08-06T10:58:43.451Z,2.57
2023-08-06T10:59:46.642Z,2.86
2023-08-06T11:00:50.102Z,3.14
2023-08-06T11:01:54.261Z,2.86
2023-08-06T11:02:57.739Z,3.12
2023-08-06T11:04:01.013Z,3.57
2023-08-06T11:05:04.189Z,2.57
2023-08-06T11:06:07.677Z,1.57
2023-08-06T11:07:11.168Z,2.43
2023-08-06T11:08:14.860Z,3.00
2023-08-06T11:09:18.561Z,3.25
2023-08-06T11:10:22.044Z,3.00
2023-08-06T11:11:25.597Z,3.00
2023-08-06T11:12:29.353Z,3.43
2023-08-06T11:13:33.126Z,3.14
2023-08-06T11:14:36.317Z,3.00
2023-08-06T11:15:39.596Z,2.00
2023-08-06T11:16:43.177Z,2.00
2023-08-06T11:17:46.320Z,2.00
2023-08-06T11:18:49.668Z,2.86
2023-08-06T11:19:53.158Z,2.57
2023-08-06T11:20:56.438Z,2.00
2023-08-06T11:21:59.705Z,3.00
2023-08-06T11:23:02.854Z,3.43
2023-08-06T11:24:05.952Z,3.14
2023-08-06T11:25:09.012Z,2.00
2023-08-06T11:26:12.347Z,2.67
2023-08-06T11:27:15.781Z,3.14
2023-08-06T11:28:18.884Z,2.33
2023-08-06T11:29:22.183Z,3.00
2023-08-06T11:30:25.472Z,2.43
2023-08-06T11:31:28.756Z,2.14
2023-08-06T11:32:31.761Z,1.86
2023-08-06T11:33:35.118Z,2.57
2023-08-06T11:34:38.301Z,1.71
2023-08-06T11:35:41.576Z,2.43
2023-08-06T11:36:44.765Z,3.00
2023-08-06T11:37:47.973Z,2.83
2023-08-06T11:38:51.234Z,1.14
2023-08-06T11:39:54.542Z,1.86
2023-08-06T11:40:57.912Z,3.00
2023-08-06T11:42:01.293Z,2.57
2023-08-06T11:43:04.797Z,2.43
2023-08-06T11:44:08.067Z,2.14
2023-08-06T11:45:11.245Z,1.83
2023-08-06T11:46:14.418Z,2.86
2023-08-06T11:47:17.709Z,3.14
2023-08-06T11:48:20.996Z,1.57
2023-08-06T11:49:24.095Z,1.43
2023-08-06T11:50:27.250Z,2.71
2023-08-06T11:51:30.416Z,3.67
2023-08-06T11:52:33.503Z,2.67
2023-08-06T11:53:36.560Z,2.43
2023-08-06T11:54:39.871Z,3.00
2023-08-06T11:55:43.163Z,2.57
2023-08-06T11:56:46.552Z,2.43
2023-08-06T11:57:49.941Z,2.43
2023-08-06T11:58:53.338Z,2.86
2023-08-06T11:59:56.608Z,2.29
2023-08-06T12:00:59.819Z,1.57
2023-08-06T12:02:02.920Z,1.33
2023-08-06T12:03:06.221Z,2.43
2023-08-06T12:04:09.341Z,3.00
2023-08-06T12:05:12.513Z,2.43
2023-08-06T12:06:15.679Z,3.29
2023-08-06T12:07:18.850Z,3.00
2023-08-06T12:08:22.164Z,2.00
2023-08-06T12:09:25.460Z,2.29
2023-08-06T12:10:28.648Z,2.57
2023-08-06T12:11:31.916Z,2.00
2023-08-06T12:12:35.224Z,3.14
2023-08-06T12:13:38.486Z,4.57
2023-08-06T12:14:41.870Z,4.86
2023-08-06T12:15:45.159Z,6.00
2023-08-06T12:16:48.573Z,6.43
2023-08-06T12:17:51.878Z,6.57
2023-08-06T12:18:55.216Z,6.71
2023-08-06T12:19:58.523Z,7.14
2023-08-06T12:21:02.829Z,6.57
2023-08-06T12:22:06.379Z,6.37
2023-08-06T12:23:09.680Z,6.57
2023-08-06T12:24:13.200Z,5.86
2023-08-06T12:25:16.969Z,5.87
2023-08-06T12:26:20.456Z,6.00
2023-08-06T12:27:23.946Z,6.00
2023-08-06T12:28:27.333Z,5.57
2023-08-06T12:29:30.823Z,6.00
2023-08-06T12:30:34.490Z,6.00
2023-08-06T12:31:38.208Z,6.43
2023-08-06T12:32:41.829Z,8.29
2023-08-06T12:33:45.698Z,7.75
2023-08-06T12:34:53.433Z,6.43
2023-08-06T12:35:53.908Z,6.00
2023-08-06T12:36:57.501Z,6.00
2023-08-06T12:38:00.890Z,4.86
2023-08-06T12:39:04.576Z,6.29
2023-08-06T12:40:28.435Z,7.25
2023-08-06T12:41:12.393Z,6.50
2023-08-06T12:42:15.763Z,6.29
2023-08-06T12:43:18.965Z,6.43
2023-08-06T12:44:22.232Z,7.00
2023-08-06T12:45:25.517Z,7.00
2023-08-06T12:46:28.754Z,7.86
2023-08-06T12:47:32.195Z,7.29
2023-08-06T12:48:35.673Z,5.00
2023-08-06T12:49:40.055Z,5.71
2023-08-06T12:50:43.367Z,7.50
2023-08-06T12:51:46.646Z,7.14
2023-08-06T12:52:49.936Z,6.86
2023-08-06T12:53:53.340Z,7.71
2023-08-06T12:54:56.591Z,8.71
2023-08-06T12:56:00.199Z,6.57
2023-08-06T12:57:03.591Z,5.71
2023-08-06T12:58:06.972Z,6.86
2023-08-06T12:59:10.576Z,7.29
2023-08-06T13:00:14.053Z,7.00
2023-08-06T13:01:17.573Z,7.71
2023-08-06T13:02:20.835Z,8.13
2023-08-06T13:03:24.131Z,9.00
2023-08-06T13:04:27.555Z,8.86
2023-08-06T13:05:30.870Z,8.86
2023-08-06T13:06:34.270Z,8.83
2023-08-06T13:07:37.665Z,7.14
2023-08-06T13:08:40.769Z,8.29
2023-08-06T13:09:44.122Z,10.17
2023-08-06T13:10:47.411Z,8.67
2023-08-06T13:11:50.317Z,8.57
2023-08-06T13:12:53.567Z,10.71
2023-08-06T13:13:56.774Z,9.00
2023-08-06T13:14:59.929Z,8.00
2023-08-06T13:16:03.241Z,10.00
2023-08-06T13:17:06.506Z,9.57
2023-08-06T13:18:09.783Z,9.86
2023-08-06T13:19:12.968Z,9.14
2023-08-06T13:20:17.926Z,7.86
2023-08-06T13:21:20.558Z,9.50
2023-08-06T13:22:23.850Z,9.86
2023-08-06T13:23:27.126Z,10.33
2023-08-06T13:24:30.408Z,9.33
2023-08-06T13:25:33.696Z,10.57
2023-08-06T13:26:37.096Z,9.29
2023-08-06T13:27:40.290Z,7.00
2023-08-06T13:28:43.551Z,8.67
2023-08-06T13:29:46.742Z,8.67
2023-08-06T13:30:50.049Z,6.43
2023-08-06T13:31:53.644Z,7.86
2023-08-06T13:32:56.893Z,7.86
2023-08-06T13:34:00.072Z,8.71
2023-08-06T13:35:03.353Z,8.71
2023-08-06T13:36:06.539Z,7.71
2023-08-06T13:37:09.724Z,8.43
2023-08-06T13:38:12.911Z,7.00
2023-08-06T13:39:16.080Z,7.00
2023-08-06T13:40:19.376Z,9.00
2023-08-06T13:41:23.074Z,9.43
2023-08-06T13:42:26.653Z,7.43
2023-08-06T13:43:30.038Z,8.86
2023-08-06T13:44:33.272Z,8.67
2023-08-06T13:45:36.619Z,6.33
2023-08-06T13:46:40.099Z,7.86
2023-08-06T13:47:43.719Z,7.50
2023-08-06T13:48:47.175Z,6.86
2023-08-06T13:49:50.579Z,8.43
2023-08-06T13:50:54.052Z,8.14
2023-08-06T13:52:08.073Z,9.14
2023-08-06T13:53:02.056Z,10.25
2023-08-06T13:54:05.402Z,9.00
2023-08-06T13:55:08.679Z,8.29
2023-08-06T13:56:11.909Z,8.67
2023-08-06T13:57:15.295Z,8.29
2023-08-06T13:58:18.598Z,7.29
2023-08-06T13:59:22.093Z,7.43
2023-08-06T14:00:25.366Z,6.00
2023-08-06T14:01:39.172Z,7.71
2023-08-06T14:02:33.499Z,8.50
2023-08-06T14:03:37.121Z,8.71
2023-08-06T14:04:40.855Z,9.00
2023-08-06T14:05:44.036Z,6.57
2023-08-06T14:06:47.412Z,7.29